sensor_id;sensor_type;location;lat;lon;timestamp;P1;durP1;ratioP1;P2;durP2;ratioP2
59474;SDS011;45288;51.136;16.928;2023-06-10T00:02:03;330.67;;;306.73;;
59474;SDS011;45288;51.136;16.928;2023-06-10T00:04:29;334.83;;;309.67;;
59474;SDS011;45288;51.136;16.928;2023-06-10T00:06:55;335.83;;;310.43;;
59474;SDS011;45288;51.136;16.928;2023-06-10T00:09:21;329.33;;;305.55;;
59474;SDS011;45288;51.136;16.928;2023-06-10T00:11:47;333.10;;;308.43;;
59474;SDS011;45288;51.136;16.928;2023-06-10T00:14:13;329.50;;;305.97;;
59474;SDS011;45288;51.136;16.928;2023-06-10T00:16:39;326.08;;;302.33;;
59474;SDS011;45288;51.136;16.928;2023-06-10T00:19:05;328.42;;;304.50;;
59474;SDS011;45288;51.136;16.928;2023-06-10T00:21:31;335.88;;;310.77;;
59474;SDS011;45288;51.136;16.928;2023-06-10T00:24:06;332.98;;;308.63;;
59474;SDS011;45288;51.136;16.928;2023-06-10T00:26:32;331.23;;;307.25;;
59474;SDS011;45288;51.136;16.928;2023-06-10T00:28:58;325.77;;;302.40;;
59474;SDS011;45288;51.136;16.928;2023-06-10T00:31:24;329.77;;;305.08;;
59474;SDS011;45288;51.136;16.928;2023-06-10T00:33:52;321.63;;;297.63;;
59474;SDS011;45288;51.136;16.928;2023-06-10T00:36:17;316.43;;;293.40;;
59474;SDS011;45288;51.136;16.928;2023-06-10T00:38:43;314.02;;;290.67;;
59474;SDS011;45288;51.136;16.928;2023-06-10T00:41:09;314.13;;;291.45;;
59474;SDS011;45288;51.136;16.928;2023-06-10T00:43:35;319.40;;;295.58;;
59474;SDS011;45288;51.136;16.928;2023-06-10T00:46:01;319.63;;;296.52;;
59474;SDS011;45288;51.136;16.928;2023-06-10T00:48:29;318.75;;;294.63;;
59474;SDS011;45288;51.136;16.928;2023-06-10T00:50:56;323.17;;;299.23;;
59474;SDS011;45288;51.136;16.928;2023-06-10T00:53:22;323.17;;;299.35;;
59474;SDS011;45288;51.136;16.928;2023-06-10T00:55:48;324.90;;;300.55;;
59474;SDS011;45288;51.136;16.928;2023-06-10T00:58:13;325.17;;;301.02;;
59474;SDS011;45288;51.136;16.928;2023-06-10T01:00:41;323.67;;;299.83;;
59474;SDS011;45288;51.136;16.928;2023-06-10T01:03:07;319.60;;;296.23;;
59474;SDS011;45288;51.136;16.928;2023-06-10T01:05:35;320.80;;;297.33;;
59474;SDS011;45288;51.136;16.928;2023-06-10T01:13:00;320.25;;;297.05;;
59474;SDS011;45288;51.136;16.928;2023-06-10T01:15:30;329.77;;;305.10;;
59474;SDS011;45288;51.136;16.928;2023-06-10T01:17:59;324.05;;;300.83;;
59474;SDS011;45288;51.136;16.928;2023-06-10T01:20:30;326.20;;;302.23;;
59474;SDS011;45288;51.136;16.928;2023-06-10T01:23:00;325.73;;;301.17;;
59474;SDS011;45288;51.136;16.928;2023-06-10T01:25:29;329.75;;;304.73;;
59474;SDS011;45288;51.136;16.928;2023-06-10T01:28:05;323.45;;;299.85;;
59474;SDS011;45288;51.136;16.928;2023-06-10T01:30:35;330.33;;;305.63;;
59474;SDS011;45288;51.136;16.928;2023-06-10T01:33:02;323.42;;;300.00;;
59474;SDS011;45288;51.136;16.928;2023-06-10T01:35:32;329.10;;;304.65;;
59474;SDS011;45288;51.136;16.928;2023-06-10T01:37:58;330.02;;;305.95;;
59474;SDS011;45288;51.136;16.928;2023-06-10T01:40:25;328.10;;;304.23;;
59474;SDS011;45288;51.136;16.928;2023-06-10T01:42:51;326.98;;;302.73;;
59474;SDS011;45288;51.136;16.928;2023-06-10T01:45:18;327.25;;;303.23;;
59474;SDS011;45288;51.136;16.928;2023-06-10T01:47:43;330.10;;;305.53;;
59474;SDS011;45288;51.136;16.928;2023-06-10T01:50:09;322.73;;;299.55;;
59474;SDS011;45288;51.136;16.928;2023-06-10T01:52:35;330.37;;;306.00;;
59474;SDS011;45288;51.136;16.928;2023-06-10T01:55:00;331.83;;;306.43;;
59474;SDS011;45288;51.136;16.928;2023-06-10T01:57:26;325.40;;;301.25;;
59474;SDS011;45288;51.136;16.928;2023-06-10T01:59:52;324.08;;;300.48;;
59474;SDS011;45288;51.136;16.928;2023-06-10T02:02:18;326.97;;;302.73;;
59474;SDS011;45288;51.136;16.928;2023-06-10T02:04:44;325.83;;;301.75;;
59474;SDS011;45288;51.136;16.928;2023-06-10T02:07:10;328.33;;;304.40;;
59474;SDS011;45288;51.136;16.928;2023-06-10T02:09:37;331.02;;;306.52;;
59474;SDS011;45288;51.136;16.928;2023-06-10T02:12:03;328.97;;;304.87;;
59474;SDS011;45288;51.136;16.928;2023-06-10T02:14:29;329.08;;;305.02;;
59474;SDS011;45288;51.136;16.928;2023-06-10T02:16:55;330.57;;;306.00;;
59474;SDS011;45288;51.136;16.928;2023-06-10T02:19:22;327.73;;;304.05;;
59474;SDS011;45288;51.136;16.928;2023-06-10T02:21:48;325.00;;;301.33;;
59474;SDS011;45288;51.136;16.928;2023-06-10T02:24:14;349.92;;;324.58;;
59474;SDS011;45288;51.136;16.928;2023-06-10T02:26:40;397.37;;;366.83;;
59474;SDS011;45288;51.136;16.928;2023-06-10T02:29:06;480.27;;;444.02;;
59474;SDS011;45288;51.136;16.928;2023-06-10T02:31:31;497.75;;;459.38;;
59474;SDS011;45288;51.136;16.928;2023-06-10T02:34:01;505.02;;;466.80;;
59474;SDS011;45288;51.136;16.928;2023-06-10T02:36:27;505.95;;;467.23;;
59474;SDS011;45288;51.136;16.928;2023-06-10T02:38:53;513.60;;;474.30;;
59474;SDS011;45288;51.136;16.928;2023-06-10T02:41:19;525.00;;;484.63;;
59474;SDS011;45288;51.136;16.928;2023-06-10T02:43:46;568.88;;;524.20;;
59474;SDS011;45288;51.136;16.928;2023-06-10T02:46:11;569.92;;;526.55;;
59474;SDS011;45288;51.136;16.928;2023-06-10T02:48:41;566.92;;;523.17;;
59474;SDS011;45288;51.136;16.928;2023-06-10T02:51:07;624.28;;;575.90;;
59474;SDS011;45288;51.136;16.928;2023-06-10T02:53:37;638.97;;;589.60;;
59474;SDS011;45288;51.136;16.928;2023-06-10T02:56:08;621.43;;;574.13;;
59474;SDS011;45288;51.136;16.928;2023-06-10T02:58:34;623.97;;;576.17;;
59474;SDS011;45288;51.136;16.928;2023-06-10T03:01:02;615.20;;;567.70;;
59474;SDS011;45288;51.136;16.928;2023-06-10T03:03:34;644.30;;;594.63;;
59474;SDS011;45288;51.136;16.928;2023-06-10T03:06:09;629.63;;;581.47;;
59474;SDS011;45288;51.136;16.928;2023-06-10T03:08:36;638.65;;;589.30;;
59474;SDS011;45288;51.136;16.928;2023-06-10T03:11:06;620.38;;;572.08;;
59474;SDS011;45288;51.136;16.928;2023-06-10T03:13:33;620.75;;;572.75;;
59474;SDS011;45288;51.136;16.928;2023-06-10T03:15:59;641.33;;;591.80;;
59474;SDS011;45288;51.136;16.928;2023-06-10T03:18:26;629.97;;;581.13;;
59474;SDS011;45288;51.136;16.928;2023-06-10T03:20:53;628.33;;;579.72;;
59474;SDS011;45288;51.136;16.928;2023-06-10T03:23:19;629.65;;;580.95;;
59474;SDS011;45288;51.136;16.928;2023-06-10T03:25:46;620.27;;;572.07;;
59474;SDS011;45288;51.136;16.928;2023-06-10T03:28:15;623.63;;;574.78;;
59474;SDS011;45288;51.136;16.928;2023-06-10T03:30:42;572.30;;;528.28;;
59474;SDS011;45288;51.136;16.928;2023-06-10T03:33:08;548.13;;;506.10;;
59474;SDS011;45288;51.136;16.928;2023-06-10T03:35:34;532.35;;;491.05;;
59474;SDS011;45288;51.136;16.928;2023-06-10T03:38:01;503.45;;;465.40;;
59474;SDS011;45288;51.136;16.928;2023-06-10T03:40:27;493.00;;;455.63;;
59474;SDS011;45288;51.136;16.928;2023-06-10T03:42:53;476.37;;;439.77;;
59474;SDS011;45288;51.136;16.928;2023-06-10T03:45:18;463.25;;;428.35;;
59474;SDS011;45288;51.136;16.928;2023-06-10T03:47:46;455.50;;;420.75;;
59474;SDS011;45288;51.136;16.928;2023-06-10T03:50:16;461.35;;;426.10;;
59474;SDS011;45288;51.136;16.928;2023-06-10T03:52:43;461.10;;;425.48;;
59474;SDS011;45288;51.136;16.928;2023-06-10T03:55:11;472.83;;;436.77;;
59474;SDS011;45288;51.136;16.928;2023-06-10T03:57:42;458.77;;;424.15;;
59474;SDS011;45288;51.136;16.928;2023-06-10T04:00:08;468.70;;;432.65;;
59474;SDS011;45288;51.136;16.928;2023-06-10T04:02:40;475.10;;;437.95;;
59474;SDS011;45288;51.136;16.928;2023-06-10T04:05:47;481.83;;;444.08;;
59474;SDS011;45288;51.136;16.928;2023-06-10T04:08:13;479.30;;;443.10;;
59474;SDS011;45288;51.136;16.928;2023-06-10T04:10:38;456.73;;;421.60;;
59474;SDS011;45288;51.136;16.928;2023-06-10T04:13:04;457.95;;;422.80;;
59474;SDS011;45288;51.136;16.928;2023-06-10T04:15:37;449.33;;;414.60;;
59474;SDS011;45288;51.136;16.928;2023-06-10T04:18:07;484.75;;;447.40;;
59474;SDS011;45288;51.136;16.928;2023-06-10T04:20:34;573.85;;;529.45;;
59474;SDS011;45288;51.136;16.928;2023-06-10T04:22:59;568.75;;;524.42;;
59474;SDS011;45288;51.136;16.928;2023-06-10T04:25:26;573.60;;;529.53;;
59474;SDS011;45288;51.136;16.928;2023-06-10T04:27:53;582.67;;;537.37;;
59474;SDS011;45288;51.136;16.928;2023-06-10T04:30:18;581.85;;;536.88;;
59474;SDS011;45288;51.136;16.928;2023-06-10T04:32:44;628.00;;;578.50;;
59474;SDS011;45288;51.136;16.928;2023-06-10T04:35:14;605.13;;;557.97;;
59474;SDS011;45288;51.136;16.928;2023-06-10T04:37:40;702.97;;;648.70;;
59474;SDS011;45288;51.136;16.928;2023-06-10T04:40:07;1121.80;;;999.90;;
59474;SDS011;45288;51.136;16.928;2023-06-10T04:42:33;1117.43;;;999.90;;
59474;SDS011;45288;51.136;16.928;2023-06-10T04:44:59;703.38;;;648.25;;
59474;SDS011;45288;51.136;16.928;2023-06-10T04:47:25;1192.57;;;999.90;;
59474;SDS011;45288;51.136;16.928;2023-06-10T04:49:51;1195.70;;;999.90;;
59474;SDS011;45288;51.136;16.928;2023-06-10T04:52:17;1200.53;;;999.90;;
59474;SDS011;45288;51.136;16.928;2023-06-10T04:54:43;1188.45;;;999.90;;
59474;SDS011;45288;51.136;16.928;2023-06-10T04:57:09;1219.57;;;999.90;;
59474;SDS011;45288;51.136;16.928;2023-06-10T04:59:37;770.28;;;711.15;;
59474;SDS011;45288;51.136;16.928;2023-06-10T05:02:04;1218.43;;;999.90;;
59474;SDS011;45288;51.136;16.928;2023-06-10T05:04:30;1206.65;;;999.90;;
59474;SDS011;45288;51.136;16.928;2023-06-10T05:06:56;1041.37;;;964.53;;
59474;SDS011;45288;51.136;16.928;2023-06-10T05:09:21;982.25;;;909.78;;
59474;SDS011;45288;51.136;16.928;2023-06-10T05:11:47;963.50;;;891.47;;
59474;SDS011;45288;51.136;16.928;2023-06-10T05:14:13;901.50;;;833.05;;
59474;SDS011;45288;51.136;16.928;2023-06-10T05:16:38;916.17;;;847.10;;
59474;SDS011;45288;51.136;16.928;2023-06-10T05:19:04;914.03;;;844.93;;
59474;SDS011;45288;51.136;16.928;2023-06-10T05:21:30;876.15;;;809.25;;
59474;SDS011;45288;51.136;16.928;2023-06-10T05:23:55;846.70;;;781.80;;
59474;SDS011;45288;51.136;16.928;2023-06-10T05:26:21;885.03;;;817.17;;
59474;SDS011;45288;51.136;16.928;2023-06-10T05:28:47;869.97;;;803.60;;
59474;SDS011;45288;51.136;16.928;2023-06-10T05:31:13;886.80;;;819.65;;
59474;SDS011;45288;51.136;16.928;2023-06-10T05:33:38;776.17;;;716.27;;
59474;SDS011;45288;51.136;16.928;2023-06-10T05:36:04;809.00;;;747.10;;
59474;SDS011;45288;51.136;16.928;2023-06-10T05:38:30;803.67;;;741.67;;
59474;SDS011;45288;51.136;16.928;2023-06-10T05:40:56;784.00;;;722.70;;
59474;SDS011;45288;51.136;16.928;2023-06-10T05:43:24;821.57;;;758.27;;
59474;SDS011;45288;51.136;16.928;2023-06-10T05:45:49;823.47;;;759.85;;
59474;SDS011;45288;51.136;16.928;2023-06-10T05:48:15;763.83;;;704.23;;
59474;SDS011;45288;51.136;16.928;2023-06-10T05:50:41;798.15;;;736.03;;
59474;SDS011;45288;51.136;16.928;2023-06-10T05:53:08;762.67;;;703.40;;
59474;SDS011;45288;51.136;16.928;2023-06-10T05:55:41;812.45;;;748.60;;
59474;SDS011;45288;51.136;16.928;2023-06-10T05:58:07;798.95;;;736.05;;
59474;SDS011;45288;51.136;16.928;2023-06-10T06:00:32;798.60;;;735.77;;
59474;SDS011;45288;51.136;16.928;2023-06-10T06:02:58;730.70;;;673.58;;
59474;SDS011;45288;51.136;16.928;2023-06-10T06:05:24;442.40;;;407.45;;
59474;SDS011;45288;51.136;16.928;2023-06-10T06:07:50;467.25;;;429.70;;
59474;SDS011;45288;51.136;16.928;2023-06-10T06:10:19;456.87;;;421.20;;
59474;SDS011;45288;51.136;16.928;2023-06-10T06:12:44;474.65;;;437.05;;
59474;SDS011;45288;51.136;16.928;2023-06-10T06:15:10;672.92;;;619.40;;
59474;SDS011;45288;51.136;16.928;2023-06-10T06:17:36;794.28;;;731.80;;
59474;SDS011;45288;51.136;16.928;2023-06-10T06:20:02;769.72;;;709.20;;
59474;SDS011;45288;51.136;16.928;2023-06-10T06:22:28;727.35;;;669.35;;
59474;SDS011;45288;51.136;16.928;2023-06-10T06:24:54;754.87;;;694.90;;
59474;SDS011;45288;51.136;16.928;2023-06-10T06:27:19;761.13;;;700.70;;
59474;SDS011;45288;51.136;16.928;2023-06-10T06:29:46;744.13;;;685.17;;
59474;SDS011;45288;51.136;16.928;2023-06-10T06:32:12;607.40;;;557.97;;
59474;SDS011;45288;51.136;16.928;2023-06-10T06:34:38;690.15;;;634.47;;
59474;SDS011;45288;51.136;16.928;2023-06-10T06:37:04;694.37;;;638.00;;
59474;SDS011;45288;51.136;16.928;2023-06-10T06:39:32;656.25;;;602.88;;
59474;SDS011;45288;51.136;16.928;2023-06-10T06:41:58;658.38;;;605.00;;
59474;SDS011;45288;51.136;16.928;2023-06-10T06:44:41;703.03;;;646.08;;
59474;SDS011;45288;51.136;16.928;2023-06-10T06:47:06;665.40;;;610.75;;
59474;SDS011;45288;51.136;16.928;2023-06-10T06:49:32;659.90;;;606.75;;
59474;SDS011;45288;51.136;16.928;2023-06-10T06:51:58;666.43;;;611.97;;
59474;SDS011;45288;51.136;16.928;2023-06-10T06:54:23;642.00;;;589.33;;
59474;SDS011;45288;51.136;16.928;2023-06-10T06:56:49;640.90;;;588.58;;
59474;SDS011;45288;51.136;16.928;2023-06-10T06:59:15;644.78;;;592.55;;
59474;SDS011;45288;51.136;16.928;2023-06-10T07:01:42;603.10;;;553.38;;
59474;SDS011;45288;51.136;16.928;2023-06-10T07:04:08;641.92;;;589.00;;
59474;SDS011;45288;51.136;16.928;2023-06-10T07:06:34;645.50;;;593.03;;
59474;SDS011;45288;51.136;16.928;2023-06-10T07:09:00;636.53;;;584.33;;
59474;SDS011;45288;51.136;16.928;2023-06-10T07:11:27;634.22;;;582.38;;
59474;SDS011;45288;51.136;16.928;2023-06-10T07:13:53;642.60;;;589.88;;
59474;SDS011;45288;51.136;16.928;2023-06-10T07:16:19;639.35;;;587.10;;
59474;SDS011;45288;51.136;16.928;2023-06-10T07:18:46;621.40;;;570.20;;
59474;SDS011;45288;51.136;16.928;2023-06-10T07:21:12;635.35;;;583.60;;
59474;SDS011;45288;51.136;16.928;2023-06-10T07:23:41;637.57;;;585.37;;
59474;SDS011;45288;51.136;16.928;2023-06-10T07:26:07;634.67;;;582.10;;
59474;SDS011;45288;51.136;16.928;2023-06-10T07:28:33;635.42;;;582.97;;
59474;SDS011;45288;51.136;16.928;2023-06-10T07:30:59;629.43;;;577.47;;
59474;SDS011;45288;51.136;16.928;2023-06-10T07:33:24;584.65;;;536.38;;
59474;SDS011;45288;51.136;16.928;2023-06-10T07:35:50;613.15;;;562.00;;
59474;SDS011;45288;51.136;16.928;2023-06-10T07:38:16;615.28;;;564.47;;
59474;SDS011;45288;51.136;16.928;2023-06-10T07:40:42;600.95;;;551.10;;
59474;SDS011;45288;51.136;16.928;2023-06-10T07:43:08;585.30;;;536.37;;
59474;SDS011;45288;51.136;16.928;2023-06-10T07:45:34;586.95;;;538.10;;
59474;SDS011;45288;51.136;16.928;2023-06-10T07:48:00;589.03;;;539.53;;
59474;SDS011;45288;51.136;16.928;2023-06-10T07:50:25;600.60;;;550.90;;
59474;SDS011;45288;51.136;16.928;2023-06-10T07:52:51;624.85;;;573.22;;
59474;SDS011;45288;51.136;16.928;2023-06-10T07:55:17;634.93;;;582.73;;
59474;SDS011;45288;51.136;16.928;2023-06-10T07:57:43;613.25;;;562.40;;
59474;SDS011;45288;51.136;16.928;2023-06-10T08:00:08;615.70;;;564.63;;
59474;SDS011;45288;51.136;16.928;2023-06-10T08:02:40;600.55;;;549.80;;
59474;SDS011;45288;51.136;16.928;2023-06-10T08:05:06;585.33;;;536.53;;
59474;SDS011;45288;51.136;16.928;2023-06-10T08:07:32;561.63;;;515.20;;
59474;SDS011;45288;51.136;16.928;2023-06-10T08:09:58;558.67;;;512.43;;
59474;SDS011;45288;51.136;16.928;2023-06-10T08:12:23;566.30;;;519.55;;
59474;SDS011;45288;51.136;16.928;2023-06-10T08:14:49;580.05;;;532.00;;
59474;SDS011;45288;51.136;16.928;2023-06-10T08:17:15;578.83;;;531.07;;
